createdAt,value
2022-12-31T00:02:45.643Z,52.90
2022-12-31T00:05:37.293Z,52.70
2022-12-31T00:08:25.653Z,52.60
2022-12-31T00:11:14.601Z,52.50
2022-12-31T00:14:02.953Z,52.40
2022-12-31T00:16:51.363Z,52.20
2022-12-31T00:19:41.324Z,52.20
2022-12-31T00:22:29.624Z,52.20
2022-12-31T00:25:18.018Z,52.10
2022-12-31T00:28:06.470Z,51.90
2022-12-31T00:30:54.770Z,51.90
2022-12-31T00:33:44.427Z,52.00
2022-12-31T00:36:36.880Z,51.80
2022-12-31T00:39:25.264Z,51.70
2022-12-31T00:42:13.605Z,51.70
2022-12-31T00:45:01.867Z,51.50
2022-12-31T00:47:50.139Z,51.50
2022-12-31T00:50:38.448Z,51.40
2022-12-31T00:53:28.517Z,51.40
2022-12-31T00:56:19.316Z,51.40
2022-12-31T00:59:07.554Z,51.50
2022-12-31T01:01:55.751Z,51.40
2022-12-31T01:04:44.704Z,51.40
2022-12-31T01:07:33.041Z,51.10
2022-12-31T01:10:36.509Z,51.20
2022-12-31T01:13:24.862Z,51.20
2022-12-31T01:16:14.210Z,51.20
2022-12-31T01:19:05.726Z,51.00
2022-12-31T01:21:54.787Z,51.00
2022-12-31T01:24:43.256Z,51.00
2022-12-31T01:27:32.924Z,51.30
2022-12-31T01:30:21.291Z,51.30
2022-12-31T01:33:09.553Z,51.30
2022-12-31T01:36:02.244Z,51.30
2022-12-31T01:38:50.744Z,51.40
2022-12-31T01:41:41.195Z,51.30
2022-12-31T01:45:00.987Z,51.40
2022-12-31T01:47:52.841Z,51.10
2022-12-31T01:50:43.069Z,51.10
2022-12-31T01:53:31.957Z,51.10
2022-12-31T01:56:22.428Z,51.30
2022-12-31T01:59:12.260Z,51.40
2022-12-31T02:02:02.854Z,51.50
2022-12-31T02:04:54.386Z,51.60
2022-12-31T02:07:42.968Z,51.60
2022-12-31T02:10:31.358Z,51.60
2022-12-31T02:13:19.744Z,51.40
2022-12-31T02:16:15.413Z,51.50
2022-12-31T02:19:19.774Z,51.30
2022-12-31T02:22:19.032Z,51.30
2022-12-31T02:25:32.032Z,51.60
2022-12-31T02:28:37.085Z,51.60
2022-12-31T02:31:31.568Z,51.70
2022-12-31T02:34:25.037Z,51.70
2022-12-31T02:37:15.930Z,51.60
2022-12-31T02:40:04.334Z,51.60
2022-12-31T02:42:55.605Z,51.70
2022-12-31T02:45:47.601Z,51.90
2022-12-31T02:48:48.085Z,51.50
2022-12-31T02:51:45.428Z,51.50
2022-12-31T02:54:38.673Z,51.50
2022-12-31T02:57:35.228Z,51.80
2022-12-31T03:00:41.167Z,51.80
2022-12-31T03:03:30.252Z,51.80
2022-12-31T03:06:20.022Z,51.70
2022-12-31T03:09:14.151Z,51.80
2022-12-31T03:12:20.727Z,51.80
2022-12-31T03:15:20.142Z,51.80
2022-12-31T03:18:13.039Z,51.60
2022-12-31T03:21:18.613Z,51.60
2022-12-31T03:24:26.097Z,51.60
2022-12-31T03:27:14.343Z,51.90
2022-12-31T03:30:02.634Z,51.90
2022-12-31T03:32:51.671Z,51.80
2022-12-31T03:35:41.875Z,51.80
2022-12-31T03:38:30.192Z,51.80
2022-12-31T03:41:19.811Z,51.80
2022-12-31T03:44:08.062Z,51.90
2022-12-31T03:46:56.300Z,51.80
2022-12-31T03:49:44.626Z,51.80
2022-12-31T03:52:32.951Z,51.80
2022-12-31T03:55:21.305Z,51.80
2022-12-31T03:58:11.010Z,52.00
2022-12-31T04:00:59.441Z,52.20
2022-12-31T04:03:47.728Z,52.20
2022-12-31T04:06:36.027Z,52.10
2022-12-31T04:09:24.368Z,52.20
2022-12-31T04:12:12.656Z,52.30
2022-12-31T04:15:02.384Z,52.30
2022-12-31T04:17:50.793Z,52.30
2022-12-31T04:20:39.073Z,52.30
2022-12-31T04:23:27.225Z,52.40
2022-12-31T04:26:15.571Z,52.50
2022-12-31T04:29:03.874Z,52.50
2022-12-31T04:31:53.571Z,52.60
2022-12-31T04:34:41.899Z,52.80
2022-12-31T04:37:30.254Z,52.80
2022-12-31T04:40:18.691Z,52.90
2022-12-31T04:43:06.909Z,52.80
2022-12-31T04:45:55.080Z,52.70
2022-12-31T04:48:44.814Z,52.70
2022-12-31T04:51:33.851Z,52.50
2022-12-31T04:54:22.164Z,52.60
2022-12-31T04:57:10.393Z,52.90
2022-12-31T04:59:58.664Z,52.90
2022-12-31T05:02:47.082Z,53.20
2022-12-31T05:05:39.788Z,53.00
2022-12-31T05:08:28.024Z,53.20
2022-12-31T05:11:16.931Z,53.00
2022-12-31T05:14:05.424Z,53.00
2022-12-31T05:16:53.810Z,53.20
2022-12-31T05:19:42.122Z,53.10
2022-12-31T05:22:31.676Z,53.20
2022-12-31T05:25:19.949Z,53.30
2022-12-31T05:28:08.378Z,53.40
2022-12-31T05:30:56.717Z,53.50
2022-12-31T05:33:44.891Z,53.70
2022-12-31T05:36:33.462Z,54.00
2022-12-31T05:39:23.104Z,54.30
2022-12-31T05:42:11.356Z,54.10
2022-12-31T05:44:59.670Z,54.10
2022-12-31T05:47:47.987Z,54.20
2022-12-31T05:50:36.323Z,54.20
2022-12-31T05:53:24.868Z,53.90
2022-12-31T05:56:14.540Z,54.30
2022-12-31T05:59:02.744Z,54.20
2022-12-31T06:01:51.369Z,54.40
2022-12-31T06:04:39.582Z,54.90
2022-12-31T06:07:27.946Z,55.20
2022-12-31T06:10:16.368Z,54.90
2022-12-31T06:13:06.181Z,54.80
2022-12-31T06:15:54.473Z,54.80
2022-12-31T06:18:42.901Z,55.50
2022-12-31T06:21:31.165Z,55.00
2022-12-31T06:24:19.811Z,55.10
2022-12-31T06:27:07.987Z,55.20
2022-12-31T06:29:57.763Z,55.30
2022-12-31T06:32:46.918Z,55.40
2022-12-31T06:35:35.531Z,55.70
2022-12-31T06:38:23.778Z,56.20
2022-12-31T06:41:13.626Z,56.20
2022-12-31T06:44:02.069Z,56.20
2022-12-31T06:46:53.013Z,56.30
2022-12-31T06:49:41.634Z,56.40
2022-12-31T06:52:29.865Z,56.30
2022-12-31T06:55:18.702Z,56.60
2022-12-31T06:58:07.656Z,56.60
2022-12-31T07:01:06.712Z,56.80
2022-12-31T07:04:06.348Z,57.00
2022-12-31T07:07:02.670Z,57.00
2022-12-31T07:10:00.536Z,57.00
2022-12-31T07:13:05.778Z,57.20
2022-12-31T07:16:06.697Z,57.30
2022-12-31T07:19:04.926Z,57.20
2022-12-31T07:21:55.159Z,57.60
2022-12-31T07:24:44.360Z,57.40
2022-12-31T07:27:43.475Z,57.20
2022-12-31T07:30:41.077Z,57.40
2022-12-31T07:33:41.278Z,57.60
2022-12-31T07:36:54.594Z,58.00
2022-12-31T07:40:02.410Z,58.30
2022-12-31T07:43:03.919Z,58.30
2022-12-31T07:46:00.153Z,58.40
2022-12-31T07:48:48.779Z,58.40
2022-12-31T07:51:39.186Z,58.40
2022-12-31T07:54:27.361Z,58.60
2022-12-31T07:57:17.888Z,58.80
2022-12-31T08:00:12.385Z,58.90
2022-12-31T08:03:16.351Z,58.70
2022-12-31T08:06:12.740Z,59.10
2022-12-31T08:09:08.269Z,59.20
2022-12-31T08:11:59.328Z,59.50
2022-12-31T08:14:49.662Z,59.20
2022-12-31T08:17:38.215Z,59.00
2022-12-31T08:20:27.831Z,59.20
2022-12-31T08:23:23.641Z,59.30
2022-12-31T08:26:27.393Z,59.00
2022-12-31T08:29:27.615Z,59.00
2022-12-31T08:32:23.269Z,59.00
2022-12-31T08:35:33.941Z,59.10
2022-12-31T08:38:30.301Z,59.50
2022-12-31T08:41:30.492Z,59.10
2022-12-31T08:44:27.904Z,58.90
2022-12-31T08:47:27.338Z,59.30
2022-12-31T08:50:16.977Z,59.30
2022-12-31T08:53:06.074Z,59.20
2022-12-31T08:56:01.801Z,59.10
2022-12-31T08:59:02.218Z,59.20
2022-12-31T09:02:05.182Z,59.30
2022-12-31T09:05:05.317Z,59.20
2022-12-31T09:08:13.291Z,59.00
2022-12-31T09:11:08.754Z,58.50
2022-12-31T09:14:16.911Z,58.40
2022-12-31T09:17:16.253Z,58.40
2022-12-31T09:20:05.268Z,58.50
2022-12-31T09:22:55.436Z,58.90
2022-12-31T09:25:50.834Z,56.60
2022-12-31T09:28:47.949Z,56.10
2022-12-31T09:31:45.654Z,54.90
2022-12-31T09:34:41.988Z,53.50
2022-12-31T09:37:40.997Z,52.70
2022-12-31T09:40:51.940Z,50.60
2022-12-31T09:44:07.982Z,48.40
2022-12-31T09:47:43.128Z,48.60
2022-12-31T09:50:52.811Z,48.90
2022-12-31T09:53:50.839Z,49.40
2022-12-31T09:56:43.729Z,49.70
2022-12-31T09:59:41.828Z,48.00
2022-12-31T10:02:47.138Z,48.30
2022-12-31T10:06:07.999Z,48.60
2022-12-31T10:09:11.380Z,48.50
2022-12-31T10:12:17.530Z,49.60
2022-12-31T10:15:22.477Z,49.80
2022-12-31T10:18:31.057Z,50.10
2022-12-31T10:21:42.607Z,50.30
2022-12-31T10:24:52.500Z,50.20
2022-12-31T10:27:52.637Z,50.70
2022-12-31T10:30:49.080Z,50.60
2022-12-31T10:33:44.880Z,50.80
2022-12-31T10:36:47.752Z,50.80
2022-12-31T10:39:46.452Z,50.80
2022-12-31T10:43:05.695Z,50.90
2022-12-31T10:46:37.544Z,51.40
2022-12-31T10:49:59.803Z,51.60
2022-12-31T10:53:18.206Z,51.50
2022-12-31T10:56:43.147Z,51.80
2022-12-31T11:00:04.116Z,51.90
2022-12-31T11:03:29.914Z,51.80
2022-12-31T11:06:59.790Z,51.80
2022-12-31T11:10:20.842Z,52.00
2022-12-31T11:14:09.235Z,51.60
2022-12-31T11:17:35.656Z,51.80
2022-12-31T11:21:07.722Z,52.40
2022-12-31T11:24:06.435Z,52.80
2022-12-31T11:27:08.093Z,52.90
2022-12-31T11:30:07.488Z,53.20
2022-12-31T11:33:11.811Z,53.10
2022-12-31T11:36:13.884Z,53.00
2022-12-31T11:39:31.480Z,53.00
2022-12-31T11:42:26.018Z,53.00
2022-12-31T11:45:29.002Z,52.90
2022-12-31T11:48:31.029Z,52.80
2022-12-31T11:51:38.681Z,52.40
2022-12-31T11:54:50.176Z,52.10
2022-12-31T11:57:42.623Z,51.90
2022-12-31T12:00:33.257Z,51.90
2022-12-31T12:03:21.738Z,51.90
2022-12-31T12:06:12.952Z,51.90
2022-12-31T12:09:05.635Z,51.90
2022-12-31T12:12:00.710Z,51.90
2022-12-31T12:14:54.955Z,51.90
2022-12-31T12:17:43.336Z,51.90
2022-12-31T12:20:33.620Z,52.00
2022-12-31T12:23:25.245Z,51.90
2022-12-31T12:26:29.929Z,51.90
2022-12-31T12:29:20.761Z,51.80
2022-12-31T12:32:20.868Z,51.90
2022-12-31T12:35:16.624Z,51.90
2022-12-31T12:38:07.340Z,51.90
2022-12-31T12:40:58.370Z,51.90
2022-12-31T12:43:46.958Z,52.10
2022-12-31T12:46:42.575Z,52.50
2022-12-31T12:49:43.195Z,52.60
2022-12-31T12:52:48.832Z,52.60
2022-12-31T12:55:45.370Z,52.70
2022-12-31T12:58:48.050Z,52.70
2022-12-31T13:01:44.098Z,52.70
2022-12-31T13:04:57.563Z,52.70
2022-12-31T13:07:53.838Z,52.80
2022-12-31T13:10:52.510Z,52.90
2022-12-31T13:13:49.350Z,52.80
2022-12-31T13:16:42.570Z,52.80
2022-12-31T13:19:38.358Z,52.90
2022-12-31T13:22:35.711Z,52.90
2022-12-31T13:25:30.459Z,53.00
2022-12-31T13:28:20.436Z,52.90
2022-12-31T13:31:13.428Z,53.00
2022-12-31T13:34:06.845Z,53.10
2022-12-31T13:36:56.280Z,53.20
2022-12-31T13:39:47.329Z,53.10
2022-12-31T13:42:43.715Z,53.10
2022-12-31T13:45:37.310Z,53.10
2022-12-31T13:48:35.972Z,53.10
2022-12-31T13:51:34.876Z,53.20
2022-12-31T13:54:36.968Z,53.10
2022-12-31T13:57:37.643Z,52.90
2022-12-31T14:00:31.289Z,53.10
2022-12-31T14:03:25.834Z,53.20
2022-12-31T14:06:24.822Z,53.20
2022-12-31T14:09:18.826Z,53.10
2022-12-31T14:12:33.232Z,53.10
2022-12-31T14:15:27.221Z,53.30
2022-12-31T14:18:21.881Z,53.30
2022-12-31T14:21:15.700Z,53.20
2022-12-31T14:24:14.963Z,53.10
2022-12-31T14:27:07.607Z,53.10
2022-12-31T14:30:00.489Z,52.90
2022-12-31T14:33:06.271Z,52.70
2022-12-31T14:36:10.327Z,52.90
2022-12-31T14:39:25.539Z,52.90
2022-12-31T14:42:26.700Z,52.90
2022-12-31T14:45:27.692Z,52.90
2022-12-31T14:48:30.488Z,53.00
2022-12-31T14:51:18.859Z,53.10
2022-12-31T14:54:27.160Z,53.10
2022-12-31T14:57:25.665Z,53.30
2022-12-31T15:00:31.983Z,53.10
2022-12-31T15:03:27.055Z,53.10
2022-12-31T15:06:36.271Z,53.30
2022-12-31T15:09:55.644Z,53.30
2022-12-31T15:12:52.636Z,53.40
2022-12-31T15:16:06.199Z,53.20
2022-12-31T15:19:23.538Z,53.40
2022-12-31T15:22:25.624Z,53.40
2022-12-31T15:25:40.357Z,53.50
2022-12-31T15:28:35.256Z,53.60
2022-12-31T15:31:25.255Z,53.70
2022-12-31T15:34:26.527Z,53.70
2022-12-31T15:37:31.278Z,53.70
2022-12-31T15:40:25.084Z,53.70
2022-12-31T15:43:18.037Z,53.60
2022-12-31T15:46:15.813Z,53.70
2022-12-31T15:49:15.708Z,53.70
2022-12-31T15:52:08.353Z,53.70
2022-12-31T15:54:58.408Z,53.80
2022-12-31T15:57:47.084Z,53.80
2022-12-31T16:00:47.476Z,53.80
2022-12-31T16:03:36.173Z,53.90
2022-12-31T16:06:29.499Z,53.90
2022-12-31T16:09:24.597Z,53.90
2022-12-31T16:12:20.955Z,54.00
2022-12-31T16:15:20.430Z,54.00
2022-12-31T16:18:18.971Z,54.10
2022-12-31T16:21:27.108Z,54.10
2022-12-31T16:24:28.772Z,54.10
2022-12-31T16:27:18.428Z,54.40
2022-12-31T16:30:20.188Z,54.30
2022-12-31T16:33:14.194Z,54.30
2022-12-31T16:36:03.502Z,54.20
2022-12-31T16:38:59.474Z,54.20
2022-12-31T16:41:47.756Z,54.30
2022-12-31T16:44:36.540Z,54.30
2022-12-31T16:47:29.969Z,54.30
2022-12-31T16:50:21.774Z,54.30
2022-12-31T16:53:17.833Z,54.40
2022-12-31T16:56:10.056Z,54.50
2022-12-31T16:59:03.776Z,54.40
2022-12-31T17:01:57.069Z,54.50
2022-12-31T17:04:55.304Z,54.40
2022-12-31T17:07:44.635Z,54.30
2022-12-31T17:10:36.664Z,54.20
2022-12-31T17:13:32.238Z,54.30
2022-12-31T17:16:21.294Z,54.30
2022-12-31T17:19:26.431Z,54.20
2022-12-31T17:22:31.551Z,54.20
2022-12-31T17:25:25.664Z,54.10
2022-12-31T17:28:23.861Z,54.30
2022-12-31T17:31:38.186Z,54.30
2022-12-31T17:34:32.361Z,54.00
2022-12-31T17:37:26.105Z,53.90
2022-12-31T17:40:53.033Z,54.00
2022-12-31T17:43:41.982Z,54.10
2022-12-31T17:46:30.423Z,53.90
2022-12-31T17:49:27.191Z,53.80
2022-12-31T17:52:17.077Z,53.70
2022-12-31T17:55:05.881Z,53.60
2022-12-31T17:57:56.640Z,53.50
2022-12-31T18:00:44.979Z,53.40
2022-12-31T18:03:33.389Z,53.40
2022-12-31T18:06:23.402Z,53.30
2022-12-31T18:09:12.165Z,53.20
2022-12-31T18:12:02.733Z,53.20
2022-12-31T18:14:50.975Z,53.10
2022-12-31T18:17:39.327Z,53.10
2022-12-31T18:20:28.361Z,53.10
2022-12-31T18:23:23.980Z,53.00
2022-12-31T18:26:14.617Z,52.90
2022-12-31T18:29:13.562Z,52.90
2022-12-31T18:32:01.871Z,52.90
2022-12-31T18:34:50.916Z,52.90
2022-12-31T18:37:39.173Z,52.90
2022-12-31T18:40:29.095Z,52.90
2022-12-31T18:43:18.719Z,52.80
2022-12-31T18:46:07.098Z,52.80
2022-12-31T18:48:55.385Z,52.80
2022-12-31T18:51:43.695Z,52.90
2022-12-31T18:54:31.886Z,52.80
2022-12-31T18:57:21.682Z,52.80
2022-12-31T19:00:11.506Z,52.80
2022-12-31T19:02:59.898Z,52.80
2022-12-31T19:05:50.869Z,52.80
2022-12-31T19:08:39.390Z,52.80
2022-12-31T19:11:28.902Z,52.80
2022-12-31T19:14:21.833Z,52.80
2022-12-31T19:20:01.765Z,52.90
2022-12-31T19:22:50.138Z,52.80
2022-12-31T19:25:38.501Z,52.80
2022-12-31T19:28:28.732Z,52.90
2022-12-31T19:31:19.005Z,52.90
2022-12-31T19:34:07.226Z,52.70
2022-12-31T19:36:55.528Z,52.80
2022-12-31T19:39:43.854Z,52.90
2022-12-31T19:42:32.245Z,52.90
2022-12-31T19:45:22.472Z,52.90
2022-12-31T19:48:14.677Z,52.90
2022-12-31T19:51:02.890Z,52.90
2022-12-31T19:53:51.254Z,52.90
2022-12-31T19:56:39.471Z,52.90
2022-12-31T19:59:27.759Z,52.90
2022-12-31T20:02:16.025Z,52.90
2022-12-31T20:05:06.271Z,52.90
2022-12-31T20:07:54.507Z,52.90
2022-12-31T20:10:42.838Z,52.80
2022-12-31T20:13:31.028Z,52.60
2022-12-31T20:16:21.622Z,52.60
2022-12-31T20:19:11.312Z,52.60
2022-12-31T20:22:01.001Z,52.70
2022-12-31T20:24:49.433Z,52.60
2022-12-31T20:27:38.564Z,52.60
2022-12-31T20:30:27.764Z,52.60
2022-12-31T20:33:19.233Z,52.60
2022-12-31T20:36:09.853Z,52.50
2022-12-31T20:39:00.476Z,52.50
2022-12-31T20:41:49.022Z,52.50
2022-12-31T20:44:37.889Z,52.40
2022-12-31T20:47:26.220Z,52.40
2022-12-31T20:50:14.706Z,52.30
2022-12-31T20:53:03.198Z,52.30
2022-12-31T20:55:52.938Z,52.30
2022-12-31T20:58:41.258Z,52.30
2022-12-31T21:01:48.108Z,52.20
2022-12-31T21:04:38.461Z,52.10
2022-12-31T21:07:26.790Z,52.00
2022-12-31T21:10:15.287Z,52.00
2022-12-31T21:13:04.873Z,51.90
2022-12-31T21:15:55.101Z,51.80
2022-12-31T21:18:43.345Z,51.80
2022-12-31T21:21:31.494Z,51.80
2022-12-31T21:24:23.774Z,51.70
2022-12-31T21:27:12.566Z,51.70
2022-12-31T21:30:18.213Z,51.70
2022-12-31T21:33:07.767Z,51.60
2022-12-31T21:35:59.839Z,51.60
2022-12-31T21:38:52.413Z,51.50
2022-12-31T21:41:52.621Z,51.50
2022-12-31T21:44:40.949Z,51.40
2022-12-31T21:47:48.336Z,51.40
2022-12-31T21:50:36.861Z,51.30
2022-12-31T21:53:32.110Z,51.30
2022-12-31T21:56:24.973Z,51.20
2022-12-31T21:59:44.731Z,51.10
2022-12-31T22:02:59.440Z,50.90
2022-12-31T22:05:51.068Z,50.90
2022-12-31T22:08:40.129Z,50.80
2022-12-31T22:11:29.539Z,50.80
2022-12-31T22:14:17.799Z,50.80
2022-12-31T22:17:05.993Z,50.70
2022-12-31T22:23:03.748Z,50.70
2022-12-31T22:25:52.091Z,50.60
2022-12-31T22:28:41.313Z,50.60
2022-12-31T22:31:31.309Z,50.50
2022-12-31T22:34:19.789Z,50.60
2022-12-31T22:37:44.624Z,50.50
2022-12-31T22:40:18.232Z,50.60
2022-12-31T22:43:06.406Z,50.50
2022-12-31T22:45:54.833Z,50.40
2022-12-31T22:48:43.416Z,50.20
2022-12-31T22:51:57.332Z,50.20
2022-12-31T22:54:43.839Z,50.10
2022-12-31T22:57:32.148Z,49.90
2022-12-31T23:00:20.478Z,51.00
2022-12-31T23:03:09.048Z,51.40
2022-12-31T23:05:57.329Z,51.60
2022-12-31T23:09:06.799Z,51.20
2022-12-31T23:11:55.553Z,50.80
2022-12-31T23:15:01.347Z,50.80
2022-12-31T23:18:07.311Z,50.50
2022-12-31T23:21:13.322Z,50.40
2022-12-31T23:24:04.409Z,50.20
2022-12-31T23:26:52.829Z,50.20
2022-12-31T23:29:47.206Z,50.10
2022-12-31T23:32:35.836Z,49.90
2022-12-31T23:35:24.236Z,49.90
2022-12-31T23:38:12.443Z,49.80
2022-12-31T23:41:00.707Z,49.80
2022-12-31T23:43:49.859Z,49.90
2022-12-31T23:46:39.607Z,49.90
2022-12-31T23:49:27.980Z,49.80
2022-12-31T23:52:16.356Z,49.60
2022-12-31T23:55:05.357Z,49.40
2022-12-31T23:57:53.636Z,49.30
